sensor_id;sensor_type;location;lat;lon;timestamp;temperature;humidity
46758;DHT22;32509;47.750;-3.396;2023-02-28T00:00:47;7.20;99.90
46758;DHT22;32509;47.750;-3.396;2023-02-28T00:03:12;7.20;99.90
46758;DHT22;32509;47.750;-3.396;2023-02-28T00:05:38;7.20;99.90
46758;DHT22;32509;47.750;-3.396;2023-02-28T00:08:04;7.20;99.90
46758;DHT22;32509;47.750;-3.396;2023-02-28T00:10:31;7.30;99.90
46758;DHT22;32509;47.750;-3.396;2023-02-28T00:13:03;7.20;99.90
46758;DHT22;32509;47.750;-3.396;2023-02-28T00:15:30;7.30;99.90
46758;DHT22;32509;47.750;-3.396;2023-02-28T00:17:57;7.20;99.90
46758;DHT22;32509;47.750;-3.396;2023-02-28T00:20:22;7.20;99.90
46758;DHT22;32509;47.750;-3.396;2023-02-28T00:22:50;7.20;99.90
46758;DHT22;32509;47.750;-3.396;2023-02-28T00:25:19;7.10;99.90
46758;DHT22;32509;47.750;-3.396;2023-02-28T00:27:45;7.20;99.90
46758;DHT22;32509;47.750;-3.396;2023-02-28T00:30:15;7.10;99.90
46758;DHT22;32509;47.750;-3.396;2023-02-28T00:32:41;7.10;99.90
46758;DHT22;32509;47.750;-3.396;2023-02-28T00:35:08;7.10;99.90
46758;DHT22;32509;47.750;-3.396;2023-02-28T00:37:34;7.10;99.90
46758;DHT22;32509;47.750;-3.396;2023-02-28T00:40:00;7.20;99.90
46758;DHT22;32509;47.750;-3.396;2023-02-28T00:42:26;7.10;99.90
46758;DHT22;32509;47.750;-3.396;2023-02-28T00:44:52;7.10;99.90
46758;DHT22;32509;47.750;-3.396;2023-02-28T00:47:17;7.10;99.90
46758;DHT22;32509;47.750;-3.396;2023-02-28T00:49:43;7.20;99.90
46758;DHT22;32509;47.750;-3.396;2023-02-28T00:52:09;7.10;99.90
46758;DHT22;32509;47.750;-3.396;2023-02-28T00:54:35;7.10;99.90
46758;DHT22;32509;47.750;-3.396;2023-02-28T00:57:01;7.10;99.90
46758;DHT22;32509;47.750;-3.396;2023-02-28T00:59:27;7.10;99.90
46758;DHT22;32509;47.750;-3.396;2023-02-28T01:01:53;7.10;99.90
46758;DHT22;32509;47.750;-3.396;2023-02-28T01:04:18;7.10;99.90
46758;DHT22;32509;47.750;-3.396;2023-02-28T01:06:44;7.10;99.90
46758;DHT22;32509;47.750;-3.396;2023-02-28T01:09:10;7.20;99.90
46758;DHT22;32509;47.750;-3.396;2023-02-28T01:11:36;7.10;99.90
46758;DHT22;32509;47.750;-3.396;2023-02-28T01:14:03;7.20;99.90
46758;DHT22;32509;47.750;-3.396;2023-02-28T01:16:30;7.20;99.90
46758;DHT22;32509;47.750;-3.396;2023-02-28T01:18:56;7.10;99.90
46758;DHT22;32509;47.750;-3.396;2023-02-28T01:21:22;7.20;99.90
46758;DHT22;32509;47.750;-3.396;2023-02-28T01:23:49;7.10;99.90
46758;DHT22;32509;47.750;-3.396;2023-02-28T01:26:21;7.10;99.90
46758;DHT22;32509;47.750;-3.396;2023-02-28T01:28:47;7.10;99.90
46758;DHT22;32509;47.750;-3.396;2023-02-28T01:31:13;7.10;99.90
46758;DHT22;32509;47.750;-3.396;2023-02-28T01:33:40;7.20;99.90
46758;DHT22;32509;47.750;-3.396;2023-02-28T01:36:09;7.10;99.90
46758;DHT22;32509;47.750;-3.396;2023-02-28T01:38:35;7.10;99.90
46758;DHT22;32509;47.750;-3.396;2023-02-28T01:41:01;7.20;99.90
46758;DHT22;32509;47.750;-3.396;2023-02-28T01:43:30;7.10;99.90
46758;DHT22;32509;47.750;-3.396;2023-02-28T01:45:57;7.10;99.90
46758;DHT22;32509;47.750;-3.396;2023-02-28T01:48:29;7.10;99.90
46758;DHT22;32509;47.750;-3.396;2023-02-28T01:50:59;7.10;99.90
46758;DHT22;32509;47.750;-3.396;2023-02-28T01:53:39;7.20;99.90
46758;DHT22;32509;47.750;-3.396;2023-02-28T01:56:09;7.20;99.90
46758;DHT22;32509;47.750;-3.396;2023-02-28T01:58:37;7.20;99.90
46758;DHT22;32509;47.750;-3.396;2023-02-28T02:01:03;7.20;99.90
46758;DHT22;32509;47.750;-3.396;2023-02-28T02:03:30;7.20;99.90
46758;DHT22;32509;47.750;-3.396;2023-02-28T02:05:56;7.10;99.90
46758;DHT22;32509;47.750;-3.396;2023-02-28T02:08:28;7.10;99.90
46758;DHT22;32509;47.750;-3.396;2023-02-28T02:10:55;7.10;99.90
46758;DHT22;32509;47.750;-3.396;2023-02-28T02:16:04;7.10;99.90
46758;DHT22;32509;47.750;-3.396;2023-02-28T02:18:35;7.10;99.90
46758;DHT22;32509;47.750;-3.396;2023-02-28T02:27:22;7.10;99.90
46758;DHT22;32509;47.750;-3.396;2023-02-28T02:36:13;7.10;99.90
46758;DHT22;32509;47.750;-3.396;2023-02-28T02:38:50;7.10;99.90
46758;DHT22;32509;47.750;-3.396;2023-02-28T02:44:21;7.10;99.90
46758;DHT22;32509;47.750;-3.396;2023-02-28T02:46:51;7.00;99.90
46758;DHT22;32509;47.750;-3.396;2023-02-28T02:49:31;6.90;99.90
46758;DHT22;32509;47.750;-3.396;2023-02-28T02:52:01;6.90;99.90
46758;DHT22;32509;47.750;-3.396;2023-02-28T02:54:32;6.90;99.90
46758;DHT22;32509;47.750;-3.396;2023-02-28T02:57:01;7.00;99.90
46758;DHT22;32509;47.750;-3.396;2023-02-28T02:59:30;7.00;99.90
46758;DHT22;32509;47.750;-3.396;2023-02-28T03:01:59;7.00;99.90
46758;DHT22;32509;47.750;-3.396;2023-02-28T03:04:32;7.00;99.90
46758;DHT22;32509;47.750;-3.396;2023-02-28T03:07:00;6.90;99.90
46758;DHT22;32509;47.750;-3.396;2023-02-28T03:09:27;7.00;99.90
46758;DHT22;32509;47.750;-3.396;2023-02-28T03:11:56;7.00;99.90
46758;DHT22;32509;47.750;-3.396;2023-02-28T03:17:16;7.00;99.90
46758;DHT22;32509;47.750;-3.396;2023-02-28T03:28:00;7.00;99.90
46758;DHT22;32509;47.750;-3.396;2023-02-28T03:33:18;7.00;99.90
46758;DHT22;32509;47.750;-3.396;2023-02-28T03:35:55;7.00;99.90
46758;DHT22;32509;47.750;-3.396;2023-02-28T03:38:29;7.00;99.90
46758;DHT22;32509;47.750;-3.396;2023-02-28T03:41:17;7.00;99.90
46758;DHT22;32509;47.750;-3.396;2023-02-28T03:44:14;7.00;99.90
46758;DHT22;32509;47.750;-3.396;2023-02-28T03:52:32;6.80;99.90
46758;DHT22;32509;47.750;-3.396;2023-02-28T03:55:03;6.80;99.90
46758;DHT22;32509;47.750;-3.396;2023-02-28T04:02:32;6.90;99.90
46758;DHT22;32509;47.750;-3.396;2023-02-28T04:05:00;6.90;99.90
46758;DHT22;32509;47.750;-3.396;2023-02-28T04:07:30;6.90;99.90
46758;DHT22;32509;47.750;-3.396;2023-02-28T04:09:56;6.90;99.90
46758;DHT22;32509;47.750;-3.396;2023-02-28T04:12:22;6.90;99.90
46758;DHT22;32509;47.750;-3.396;2023-02-28T04:14:49;6.90;99.90
46758;DHT22;32509;47.750;-3.396;2023-02-28T04:17:15;6.80;99.90
46758;DHT22;32509;47.750;-3.396;2023-02-28T04:19:41;6.80;99.90
46758;DHT22;32509;47.750;-3.396;2023-02-28T04:22:08;6.80;99.90
46758;DHT22;32509;47.750;-3.396;2023-02-28T04:24:34;6.80;99.90
46758;DHT22;32509;47.750;-3.396;2023-02-28T04:27:01;6.70;99.90
46758;DHT22;32509;47.750;-3.396;2023-02-28T04:29:31;6.60;99.90
46758;DHT22;32509;47.750;-3.396;2023-02-28T04:31:58;6.60;99.90
46758;DHT22;32509;47.750;-3.396;2023-02-28T04:34:28;6.60;99.90
46758;DHT22;32509;47.750;-3.396;2023-02-28T04:36:54;6.70;99.90
46758;DHT22;32509;47.750;-3.396;2023-02-28T04:39:22;6.70;99.90
46758;DHT22;32509;47.750;-3.396;2023-02-28T04:41:48;6.70;99.90
46758;DHT22;32509;47.750;-3.396;2023-02-28T04:44:26;6.70;99.90
46758;DHT22;32509;47.750;-3.396;2023-02-28T04:47:24;6.70;99.90
46758;DHT22;32509;47.750;-3.396;2023-02-28T04:49:58;6.70;99.90
46758;DHT22;32509;47.750;-3.396;2023-02-28T04:52:24;6.70;99.90
46758;DHT22;32509;47.750;-3.396;2023-02-28T04:54:53;6.70;99.90
46758;DHT22;32509;47.750;-3.396;2023-02-28T04:57:18;6.70;99.90
46758;DHT22;32509;47.750;-3.396;2023-02-28T04:59:47;6.70;99.90
46758;DHT22;32509;47.750;-3.396;2023-02-28T05:02:13;6.70;99.90
46758;DHT22;32509;47.750;-3.396;2023-02-28T05:04:39;6.70;99.90
46758;DHT22;32509;47.750;-3.396;2023-02-28T05:07:05;6.70;99.90
46758;DHT22;32509;47.750;-3.396;2023-02-28T05:09:30;6.70;99.90
46758;DHT22;32509;47.750;-3.396;2023-02-28T05:11:58;6.70;99.90
46758;DHT22;32509;47.750;-3.396;2023-02-28T05:14:24;6.70;99.90
46758;DHT22;32509;47.750;-3.396;2023-02-28T05:16:49;6.80;99.90
46758;DHT22;32509;47.750;-3.396;2023-02-28T05:19:15;6.70;99.90
46758;DHT22;32509;47.750;-3.396;2023-02-28T05:21:49;6.70;99.90
46758;DHT22;32509;47.750;-3.396;2023-02-28T05:24:16;6.80;99.90
46758;DHT22;32509;47.750;-3.396;2023-02-28T05:26:51;6.70;99.90
46758;DHT22;32509;47.750;-3.396;2023-02-28T05:29:17;6.80;99.90
46758;DHT22;32509;47.750;-3.396;2023-02-28T05:31:43;6.80;99.90
46758;DHT22;32509;47.750;-3.396;2023-02-28T05:34:09;6.70;99.90
46758;DHT22;32509;47.750;-3.396;2023-02-28T05:36:38;6.70;99.90
46758;DHT22;32509;47.750;-3.396;2023-02-28T05:39:06;6.70;99.90
46758;DHT22;32509;47.750;-3.396;2023-02-28T05:41:33;6.70;99.90
46758;DHT22;32509;47.750;-3.396;2023-02-28T05:43:58;6.70;99.90
46758;DHT22;32509;47.750;-3.396;2023-02-28T05:46:25;6.70;99.90
46758;DHT22;32509;47.750;-3.396;2023-02-28T05:48:51;6.70;99.90
46758;DHT22;32509;47.750;-3.396;2023-02-28T05:51:17;6.70;99.90
46758;DHT22;32509;47.750;-3.396;2023-02-28T05:53:43;6.70;99.90
46758;DHT22;32509;47.750;-3.396;2023-02-28T05:56:09;6.60;99.90
46758;DHT22;32509;47.750;-3.396;2023-02-28T05:58:35;6.70;99.90
46758;DHT22;32509;47.750;-3.396;2023-02-28T06:01:18;6.60;99.90
46758;DHT22;32509;47.750;-3.396;2023-02-28T06:03:44;6.60;99.90
46758;DHT22;32509;47.750;-3.396;2023-02-28T06:06:10;6.60;99.90
46758;DHT22;32509;47.750;-3.396;2023-02-28T06:08:36;6.60;99.90
46758;DHT22;32509;47.750;-3.396;2023-02-28T06:11:05;6.60;99.90
46758;DHT22;32509;47.750;-3.396;2023-02-28T06:13:32;6.60;99.90
46758;DHT22;32509;47.750;-3.396;2023-02-28T06:16:01;6.60;99.90
46758;DHT22;32509;47.750;-3.396;2023-02-28T06:18:26;6.60;99.90
46758;DHT22;32509;47.750;-3.396;2023-02-28T06:20:53;6.60;99.90
46758;DHT22;32509;47.750;-3.396;2023-02-28T06:23:20;6.60;99.90
46758;DHT22;32509;47.750;-3.396;2023-02-28T06:25:46;6.60;99.90
46758;DHT22;32509;47.750;-3.396;2023-02-28T06:28:12;6.60;99.90
46758;DHT22;32509;47.750;-3.396;2023-02-28T06:30:38;6.60;99.90
46758;DHT22;32509;47.750;-3.396;2023-02-28T06:33:04;6.60;99.90
46758;DHT22;32509;47.750;-3.396;2023-02-28T06:35:29;6.60;99.90
46758;DHT22;32509;47.750;-3.396;2023-02-28T06:37:55;6.60;99.90
46758;DHT22;32509;47.750;-3.396;2023-02-28T06:40:21;6.60;99.90
46758;DHT22;32509;47.750;-3.396;2023-02-28T06:42:49;6.60;99.90
46758;DHT22;32509;47.750;-3.396;2023-02-28T06:45:15;6.60;99.90
46758;DHT22;32509;47.750;-3.396;2023-02-28T06:47:41;6.60;99.90
46758;DHT22;32509;47.750;-3.396;2023-02-28T06:50:09;6.60;99.90
46758;DHT22;32509;47.750;-3.396;2023-02-28T06:52:36;6.60;99.90
46758;DHT22;32509;47.750;-3.396;2023-02-28T06:55:04;6.60;99.90
46758;DHT22;32509;47.750;-3.396;2023-02-28T06:57:30;6.50;99.90
46758;DHT22;32509;47.750;-3.396;2023-02-28T06:59:58;6.40;99.90
46758;DHT22;32509;47.750;-3.396;2023-02-28T07:02:24;6.50;99.90
46758;DHT22;32509;47.750;-3.396;2023-02-28T07:04:50;6.40;99.90
46758;DHT22;32509;47.750;-3.396;2023-02-28T07:07:16;6.50;99.90
46758;DHT22;32509;47.750;-3.396;2023-02-28T07:09:42;6.50;99.90
46758;DHT22;32509;47.750;-3.396;2023-02-28T07:12:08;6.50;99.90
46758;DHT22;32509;47.750;-3.396;2023-02-28T07:14:33;6.50;99.90
46758;DHT22;32509;47.750;-3.396;2023-02-28T07:17:01;6.50;99.90
46758;DHT22;32509;47.750;-3.396;2023-02-28T07:19:27;6.50;99.90
46758;DHT22;32509;47.750;-3.396;2023-02-28T07:21:53;6.50;99.90
46758;DHT22;32509;47.750;-3.396;2023-02-28T07:24:19;6.50;99.90
46758;DHT22;32509;47.750;-3.396;2023-02-28T07:26:45;6.50;99.90
46758;DHT22;32509;47.750;-3.396;2023-02-28T07:29:10;6.50;99.90
46758;DHT22;32509;47.750;-3.396;2023-02-28T07:31:36;6.50;99.90
46758;DHT22;32509;47.750;-3.396;2023-02-28T07:34:02;6.40;99.90
46758;DHT22;32509;47.750;-3.396;2023-02-28T07:36:28;6.50;99.90
46758;DHT22;32509;47.750;-3.396;2023-02-28T07:38:54;6.50;99.90
46758;DHT22;32509;47.750;-3.396;2023-02-28T07:41:22;6.40;99.90
46758;DHT22;32509;47.750;-3.396;2023-02-28T07:43:49;6.40;99.90
46758;DHT22;32509;47.750;-3.396;2023-02-28T07:46:16;6.50;99.90
46758;DHT22;32509;47.750;-3.396;2023-02-28T07:48:43;6.40;99.90
46758;DHT22;32509;47.750;-3.396;2023-02-28T07:51:09;6.40;99.90
46758;DHT22;32509;47.750;-3.396;2023-02-28T07:53:35;6.40;99.90
46758;DHT22;32509;47.750;-3.396;2023-02-28T07:56:01;6.40;99.90
46758;DHT22;32509;47.750;-3.396;2023-02-28T07:58:29;6.50;99.90
46758;DHT22;32509;47.750;-3.396;2023-02-28T08:00:55;6.40;99.90
46758;DHT22;32509;47.750;-3.396;2023-02-28T08:03:22;6.30;99.90
46758;DHT22;32509;47.750;-3.396;2023-02-28T08:05:49;6.40;99.90
46758;DHT22;32509;47.750;-3.396;2023-02-28T08:08:16;6.30;99.90
46758;DHT22;32509;47.750;-3.396;2023-02-28T08:10:42;6.40;99.90
46758;DHT22;32509;47.750;-3.396;2023-02-28T08:13:08;6.40;99.90
46758;DHT22;32509;47.750;-3.396;2023-02-28T08:15:34;6.40;99.90
46758;DHT22;32509;47.750;-3.396;2023-02-28T08:18:00;6.40;99.90
46758;DHT22;32509;47.750;-3.396;2023-02-28T08:20:26;6.40;99.90
46758;DHT22;32509;47.750;-3.396;2023-02-28T08:22:52;6.40;99.90
46758;DHT22;32509;47.750;-3.396;2023-02-28T08:25:18;6.40;99.90
46758;DHT22;32509;47.750;-3.396;2023-02-28T08:27:44;6.40;99.90
46758;DHT22;32509;47.750;-3.396;2023-02-28T08:30:12;6.40;99.90
46758;DHT22;32509;47.750;-3.396;2023-02-28T08:32:39;6.40;99.90
46758;DHT22;32509;47.750;-3.396;2023-02-28T08:35:06;6.40;99.90
46758;DHT22;32509;47.750;-3.396;2023-02-28T08:37:34;6.40;99.90
46758;DHT22;32509;47.750;-3.396;2023-02-28T08:40:00;6.40;99.90
46758;DHT22;32509;47.750;-3.396;2023-02-28T08:42:26;6.40;99.90
46758;DHT22;32509;47.750;-3.396;2023-02-28T08:44:52;6.40;99.90
46758;DHT22;32509;47.750;-3.396;2023-02-28T08:47:18;6.40;99.90
46758;DHT22;32509;47.750;-3.396;2023-02-28T08:49:44;6.50;99.90
46758;DHT22;32509;47.750;-3.396;2023-02-28T08:52:10;6.50;99.90
46758;DHT22;32509;47.750;-3.396;2023-02-28T08:54:36;6.50;99.90
46758;DHT22;32509;47.750;-3.396;2023-02-28T08:57:02;6.40;99.90
46758;DHT22;32509;47.750;-3.396;2023-02-28T08:59:29;6.50;99.90
46758;DHT22;32509;47.750;-3.396;2023-02-28T09:01:55;6.50;99.90
46758;DHT22;32509;47.750;-3.396;2023-02-28T09:04:21;6.40;99.90
46758;DHT22;32509;47.750;-3.396;2023-02-28T09:06:47;6.50;99.90
46758;DHT22;32509;47.750;-3.396;2023-02-28T09:09:14;6.40;99.90
46758;DHT22;32509;47.750;-3.396;2023-02-28T09:11:40;6.50;99.90
46758;DHT22;32509;47.750;-3.396;2023-02-28T09:14:06;6.50;99.90
46758;DHT22;32509;47.750;-3.396;2023-02-28T09:16:33;6.60;99.90
46758;DHT22;32509;47.750;-3.396;2023-02-28T09:18:59;6.60;99.90
46758;DHT22;32509;47.750;-3.396;2023-02-28T09:21:25;6.60;99.90
46758;DHT22;32509;47.750;-3.396;2023-02-28T09:23:51;6.70;99.90
46758;DHT22;32509;47.750;-3.396;2023-02-28T09:26:19;6.70;99.90
46758;DHT22;32509;47.750;-3.396;2023-02-28T09:28:46;6.70;99.90
46758;DHT22;32509;47.750;-3.396;2023-02-28T09:31:15;6.70;99.90
46758;DHT22;32509;47.750;-3.396;2023-02-28T09:33:42;6.80;99.90
46758;DHT22;32509;47.750;-3.396;2023-02-28T09:36:08;6.80;99.90
46758;DHT22;32509;47.750;-3.396;2023-02-28T09:38:34;6.80;99.90
46758;DHT22;32509;47.750;-3.396;2023-02-28T09:41:09;6.70;99.90
46758;DHT22;32509;47.750;-3.396;2023-02-28T09:43:43;6.70;99.90
46758;DHT22;32509;47.750;-3.396;2023-02-28T09:48:51;6.80;99.90
46758;DHT22;32509;47.750;-3.396;2023-02-28T09:54:01;6.90;99.90
46758;DHT22;32509;47.750;-3.396;2023-02-28T09:56:39;6.90;99.90
46758;DHT22;32509;47.750;-3.396;2023-02-28T09:59:25;6.90;99.90
46758;DHT22;32509;47.750;-3.396;2023-02-28T10:04:37;6.90;99.90
46758;DHT22;32509;47.750;-3.396;2023-02-28T10:07:17;6.90;99.90
46758;DHT22;32509;47.750;-3.396;2023-02-28T10:09:47;6.90;99.90
46758;DHT22;32509;47.750;-3.396;2023-02-28T10:12:16;6.90;99.90
46758;DHT22;32509;47.750;-3.396;2023-02-28T10:14:46;7.00;99.90
46758;DHT22;32509;47.750;-3.396;2023-02-28T10:17:20;7.00;99.90
46758;DHT22;32509;47.750;-3.396;2023-02-28T10:19:56;7.00;99.90
46758;DHT22;32509;47.750;-3.396;2023-02-28T10:25:22;7.00;99.90
46758;DHT22;32509;47.750;-3.396;2023-02-28T10:27:49;7.00;99.90
46758;DHT22;32509;47.750;-3.396;2023-02-28T10:30:18;7.00;99.90
46758;DHT22;32509;47.750;-3.396;2023-02-28T10:32:51;7.00;99.90
46758;DHT22;32509;47.750;-3.396;2023-02-28T10:35:24;6.90;99.90
46758;DHT22;32509;47.750;-3.396;2023-02-28T10:37:59;7.00;99.90
46758;DHT22;32509;47.750;-3.396;2023-02-28T10:40:33;7.00;99.90
46758;DHT22;32509;47.750;-3.396;2023-02-28T10:43:19;7.10;99.90
46758;DHT22;32509;47.750;-3.396;2023-02-28T10:46:11;7.10;99.90
46758;DHT22;32509;47.750;-3.396;2023-02-28T10:48:44;7.10;99.90
46758;DHT22;32509;47.750;-3.396;2023-02-28T10:51:15;7.20;99.90
46758;DHT22;32509;47.750;-3.396;2023-02-28T10:53:50;7.20;99.90
46758;DHT22;32509;47.750;-3.396;2023-02-28T10:56:26;7.20;99.90
46758;DHT22;32509;47.750;-3.396;2023-02-28T10:59:29;7.30;99.90
46758;DHT22;32509;47.750;-3.396;2023-02-28T11:01:56;7.40;99.90
46758;DHT22;32509;47.750;-3.396;2023-02-28T11:04:34;7.40;99.90
46758;DHT22;32509;47.750;-3.396;2023-02-28T11:07:16;7.40;99.90
46758;DHT22;32509;47.750;-3.396;2023-02-28T11:09:46;7.40;99.90
46758;DHT22;32509;47.750;-3.396;2023-02-28T11:12:34;7.40;99.90
46758;DHT22;32509;47.750;-3.396;2023-02-28T11:15:06;7.50;99.90
46758;DHT22;32509;47.750;-3.396;2023-02-28T11:17:33;7.50;99.90
46758;DHT22;32509;47.750;-3.396;2023-02-28T11:20:07;7.50;99.90
46758;DHT22;32509;47.750;-3.396;2023-02-28T11:22:43;7.60;99.90
46758;DHT22;32509;47.750;-3.396;2023-02-28T11:25:21;7.60;99.90
46758;DHT22;32509;47.750;-3.396;2023-02-28T11:27:53;7.40;99.90
46758;DHT22;32509;47.750;-3.396;2023-02-28T11:30:34;7.40;99.90
46758;DHT22;32509;47.750;-3.396;2023-02-28T11:33:31;7.50;99.90
46758;DHT22;32509;47.750;-3.396;2023-02-28T11:36:02;7.40;99.90
46758;DHT22;32509;47.750;-3.396;2023-02-28T11:38:28;7.40;99.90
46758;DHT22;32509;47.750;-3.396;2023-02-28T11:40:59;7.40;99.90
46758;DHT22;32509;47.750;-3.396;2023-02-28T11:54:55;7.50;99.90
46758;DHT22;32509;47.750;-3.396;2023-02-28T12:03:31;7.60;99.90
46758;DHT22;32509;47.750;-3.396;2023-02-28T12:06:27;7.60;99.90
46758;DHT22;32509;47.750;-3.396;2023-02-28T12:11:56;7.60;99.90
46758;DHT22;32509;47.750;-3.396;2023-02-28T12:20:40;7.60;99.90
46758;DHT22;32509;47.750;-3.396;2023-02-28T12:28:45;7.70;99.90
46758;DHT22;32509;47.750;-3.396;2023-02-28T12:31:21;7.70;99.90
46758;DHT22;32509;47.750;-3.396;2023-02-28T12:33:55;7.80;99.90
46758;DHT22;32509;47.750;-3.396;2023-02-28T12:36:23;7.70;99.90
46758;DHT22;32509;47.750;-3.396;2023-02-28T12:38:59;7.70;99.90
46758;DHT22;32509;47.750;-3.396;2023-02-28T12:44:23;7.80;99.90
46758;DHT22;32509;47.750;-3.396;2023-02-28T12:46:55;7.80;99.90
46758;DHT22;32509;47.750;-3.396;2023-02-28T12:49:28;7.80;99.90
46758;DHT22;32509;47.750;-3.396;2023-02-28T12:51:59;7.90;99.90
46758;DHT22;32509;47.750;-3.396;2023-02-28T12:54:36;7.90;99.90
46758;DHT22;32509;47.750;-3.396;2023-02-28T12:57:19;7.90;99.90
46758;DHT22;32509;47.750;-3.396;2023-02-28T12:59:52;7.90;99.90
46758;DHT22;32509;47.750;-3.396;2023-02-28T13:11:00;8.00;99.90
46758;DHT22;32509;47.750;-3.396;2023-02-28T13:13:28;8.00;99.90
46758;DHT22;32509;47.750;-3.396;2023-02-28T13:16:06;8.00;99.90
46758;DHT22;32509;47.750;-3.396;2023-02-28T13:18:43;8.00;99.90
46758;DHT22;32509;47.750;-3.396;2023-02-28T13:21:29;8.10;99.90
46758;DHT22;32509;47.750;-3.396;2023-02-28T13:26:23;8.10;99.90
46758;DHT22;32509;47.750;-3.396;2023-02-28T13:31:15;8.00;99.90
46758;DHT22;32509;47.750;-3.396;2023-02-28T13:38:47;8.10;99.90
46758;DHT22;32509;47.750;-3.396;2023-02-28T13:49:35;8.10;99.90
46758;DHT22;32509;47.750;-3.396;2023-02-28T14:05:21;8.30;99.90
46758;DHT22;32509;47.750;-3.396;2023-02-28T14:07:53;8.30;99.90
46758;DHT22;32509;47.750;-3.396;2023-02-28T14:10:45;8.30;99.90
46758;DHT22;32509;47.750;-3.396;2023-02-28T14:13:44;8.30;99.90
46758;DHT22;32509;47.750;-3.396;2023-02-28T14:16:17;8.30;99.90
46758;DHT22;32509;47.750;-3.396;2023-02-28T14:19:09;8.40;99.90
46758;DHT22;32509;47.750;-3.396;2023-02-28T14:21:38;8.30;99.90
46758;DHT22;32509;47.750;-3.396;2023-02-28T14:24:35;8.30;99.90
46758;DHT22;32509;47.750;-3.396;2023-02-28T14:27:37;8.40;99.90
46758;DHT22;32509;47.750;-3.396;2023-02-28T14:33:22;8.40;99.90
46758;DHT22;32509;47.750;-3.396;2023-02-28T14:35:56;8.40;99.90
46758;DHT22;32509;47.750;-3.396;2023-02-28T14:38:35;8.50;99.90
46758;DHT22;32509;47.750;-3.396;2023-02-28T14:41:06;8.50;99.90
46758;DHT22;32509;47.750;-3.396;2023-02-28T14:43:48;8.60;99.90
46758;DHT22;32509;47.750;-3.396;2023-02-28T14:46:14;8.60;99.90
46758;DHT22;32509;47.750;-3.396;2023-02-28T14:48:41;8.60;99.90
46758;DHT22;32509;47.750;-3.396;2023-02-28T14:51:17;8.60;99.90
46758;DHT22;32509;47.750;-3.396;2023-02-28T14:53:43;8.50;99.90
46758;DHT22;32509;47.750;-3.396;2023-02-28T14:56:48;8.60;99.90
46758;DHT22;32509;47.750;-3.396;2023-02-28T14:59:40;8.60;99.90
46758;DHT22;32509;47.750;-3.396;2023-02-28T15:04:51;8.60;99.90
46758;DHT22;32509;47.750;-3.396;2023-02-28T15:07:17;8.60;99.90
46758;DHT22;32509;47.750;-3.396;2023-02-28T15:09:44;8.50;99.90
46758;DHT22;32509;47.750;-3.396;2023-02-28T15:12:14;8.50;99.90
46758;DHT22;32509;47.750;-3.396;2023-02-28T15:14:43;8.60;99.90
46758;DHT22;32509;47.750;-3.396;2023-02-28T15:17:20;8.60;99.90
46758;DHT22;32509;47.750;-3.396;2023-02-28T15:19:51;8.60;99.90
46758;DHT22;32509;47.750;-3.396;2023-02-28T15:22:29;8.60;99.90
46758;DHT22;32509;47.750;-3.396;2023-02-28T15:24:57;8.70;99.90
46758;DHT22;32509;47.750;-3.396;2023-02-28T15:27:26;8.70;99.90
46758;DHT22;32509;47.750;-3.396;2023-02-28T15:29:58;8.70;99.90
46758;DHT22;32509;47.750;-3.396;2023-02-28T15:32:33;8.70;99.90
46758;DHT22;32509;47.750;-3.396;2023-02-28T15:35:17;8.70;99.90
46758;DHT22;32509;47.750;-3.396;2023-02-28T15:37:53;8.70;99.90
46758;DHT22;32509;47.750;-3.396;2023-02-28T15:40:37;8.60;99.90
46758;DHT22;32509;47.750;-3.396;2023-02-28T15:43:18;8.70;99.90
46758;DHT22;32509;47.750;-3.396;2023-02-28T15:53:28;8.60;99.90
46758;DHT22;32509;47.750;-3.396;2023-02-28T15:56:00;8.60;99.90
46758;DHT22;32509;47.750;-3.396;2023-02-28T15:58:26;8.70;99.90
46758;DHT22;32509;47.750;-3.396;2023-02-28T16:03:50;8.70;99.90
46758;DHT22;32509;47.750;-3.396;2023-02-28T16:08:42;8.70;99.90
46758;DHT22;32509;47.750;-3.396;2023-02-28T16:11:10;8.70;99.90
46758;DHT22;32509;47.750;-3.396;2023-02-28T16:13:36;8.70;99.90
46758;DHT22;32509;47.750;-3.396;2023-02-28T16:16:02;8.70;99.90
46758;DHT22;32509;47.750;-3.396;2023-02-28T16:18:28;8.70;99.90
46758;DHT22;32509;47.750;-3.396;2023-02-28T16:20:54;8.70;99.90
46758;DHT22;32509;47.750;-3.396;2023-02-28T16:23:19;8.70;99.90
46758;DHT22;32509;47.750;-3.396;2023-02-28T16:25:45;8.70;99.90
46758;DHT22;32509;47.750;-3.396;2023-02-28T16:28:20;8.70;99.90
46758;DHT22;32509;47.750;-3.396;2023-02-28T16:30:46;8.70;99.90
46758;DHT22;32509;47.750;-3.396;2023-02-28T16:33:12;8.70;99.90
46758;DHT22;32509;47.750;-3.396;2023-02-28T16:35:38;8.70;99.90
46758;DHT22;32509;47.750;-3.396;2023-02-28T16:38:03;8.70;99.90
46758;DHT22;32509;47.750;-3.396;2023-02-28T16:40:34;8.70;99.90
46758;DHT22;32509;47.750;-3.396;2023-02-28T16:43:00;8.70;99.90
46758;DHT22;32509;47.750;-3.396;2023-02-28T16:45:29;8.70;99.90
46758;DHT22;32509;47.750;-3.396;2023-02-28T16:47:56;8.70;99.90
46758;DHT22;32509;47.750;-3.396;2023-02-28T16:50:30;8.70;99.90
46758;DHT22;32509;47.750;-3.396;2023-02-28T16:52:58;8.60;99.90
46758;DHT22;32509;47.750;-3.396;2023-02-28T16:55:25;8.60;99.90
46758;DHT22;32509;47.750;-3.396;2023-02-28T16:57:56;8.70;99.90
46758;DHT22;32509;47.750;-3.396;2023-02-28T17:00:23;8.70;99.90
46758;DHT22;32509;47.750;-3.396;2023-02-28T17:02:49;8.70;99.90
46758;DHT22;32509;47.750;-3.396;2023-02-28T17:05:15;8.70;99.90
46758;DHT22;32509;47.750;-3.396;2023-02-28T17:07:42;8.70;99.90
46758;DHT22;32509;47.750;-3.396;2023-02-28T17:10:21;8.70;99.90
46758;DHT22;32509;47.750;-3.396;2023-02-28T17:12:47;8.70;99.90
46758;DHT22;32509;47.750;-3.396;2023-02-28T17:15:15;8.70;99.90
46758;DHT22;32509;47.750;-3.396;2023-02-28T17:17:44;8.60;99.90
46758;DHT22;32509;47.750;-3.396;2023-02-28T17:20:21;8.50;99.90
46758;DHT22;32509;47.750;-3.396;2023-02-28T17:22:52;8.50;99.90
46758;DHT22;32509;47.750;-3.396;2023-02-28T17:25:18;8.50;99.90
46758;DHT22;32509;47.750;-3.396;2023-02-28T17:27:44;8.40;99.90
46758;DHT22;32509;47.750;-3.396;2023-02-28T17:32:40;8.30;99.90
46758;DHT22;32509;47.750;-3.396;2023-02-28T17:35:06;8.40;99.90
46758;DHT22;32509;47.750;-3.396;2023-02-28T17:37:32;8.40;99.90
46758;DHT22;32509;47.750;-3.396;2023-02-28T17:39:58;8.40;99.90
46758;DHT22;32509;47.750;-3.396;2023-02-28T17:42:23;8.40;99.90
46758;DHT22;32509;47.750;-3.396;2023-02-28T17:44:49;8.40;99.90
46758;DHT22;32509;47.750;-3.396;2023-02-28T17:47:15;8.50;99.90
46758;DHT22;32509;47.750;-3.396;2023-02-28T17:49:41;8.40;99.90
46758;DHT22;32509;47.750;-3.396;2023-02-28T17:52:09;8.30;99.90
46758;DHT22;32509;47.750;-3.396;2023-02-28T17:54:35;8.40;99.90
46758;DHT22;32509;47.750;-3.396;2023-02-28T17:57:01;8.40;99.90
46758;DHT22;32509;47.750;-3.396;2023-02-28T17:59:26;8.40;99.90
46758;DHT22;32509;47.750;-3.396;2023-02-28T18:02:02;8.40;99.90
46758;DHT22;32509;47.750;-3.396;2023-02-28T18:04:29;8.40;99.90
46758;DHT22;32509;47.750;-3.396;2023-02-28T18:06:55;8.30;99.90
46758;DHT22;32509;47.750;-3.396;2023-02-28T18:09:26;8.30;99.90
46758;DHT22;32509;47.750;-3.396;2023-02-28T18:11:53;8.30;99.90
46758;DHT22;32509;47.750;-3.396;2023-02-28T18:14:21;8.30;99.90
46758;DHT22;32509;47.750;-3.396;2023-02-28T18:16:49;8.20;99.90